sensor_id;sensor_type;location;lat;lon;timestamp;pressure;altitude;pressure_sealevel;temperature;humidity
2192;BME280;1102;49.718;11.902;2023-04-07T00:02:37;96308.38;;;-1.24;100.00
2192;BME280;1102;49.718;11.902;2023-04-07T00:05:04;96345.22;;;-0.69;100.00
2192;BME280;1102;49.718;11.902;2023-04-07T00:07:31;96361.94;;;-0.45;100.00
2192;BME280;1102;49.718;11.902;2023-04-07T00:10:02;96358.53;;;-0.55;100.00
2192;BME280;1102;49.718;11.902;2023-04-07T00:12:29;96340.81;;;-0.69;100.00
2192;BME280;1102;49.718;11.902;2023-04-07T00:14:56;96349.69;;;-0.65;100.00
2192;BME280;1102;49.718;11.902;2023-04-07T00:17:22;96322.19;;;-1.13;100.00
2192;BME280;1102;49.718;11.902;2023-04-07T00:19:49;96331.28;;;-1.10;100.00
2192;BME280;1102;49.718;11.902;2023-04-07T00:22:16;96355.03;;;-0.86;100.00
2192;BME280;1102;49.718;11.902;2023-04-07T00:24:43;96296.81;;;-1.06;100.00
2192;BME280;1102;49.718;11.902;2023-04-07T00:27:10;96340.03;;;-0.74;100.00
2192;BME280;1102;49.718;11.902;2023-04-07T00:29:36;96349.13;;;-0.72;100.00
2192;BME280;1102;49.718;11.902;2023-04-07T00:32:03;96323.56;;;-0.95;100.00
2192;BME280;1102;49.718;11.902;2023-04-07T00:34:30;96316.75;;;-1.11;100.00
2192;BME280;1102;49.718;11.902;2023-04-07T00:36:57;96343.75;;;-1.07;100.00
2192;BME280;1102;49.718;11.902;2023-04-07T00:39:23;96333.47;;;-0.87;100.00
2192;BME280;1102;49.718;11.902;2023-04-07T00:41:53;96321.53;;;-0.93;100.00
2192;BME280;1102;49.718;11.902;2023-04-07T00:44:19;96338.28;;;-1.16;100.00
2192;BME280;1102;49.718;11.902;2023-04-07T00:46:47;96302.34;;;-1.34;100.00
2192;BME280;1102;49.718;11.902;2023-04-07T00:49:15;96330.59;;;-1.43;100.00
2192;BME280;1102;49.718;11.902;2023-04-07T00:51:44;96288.25;;;-1.54;100.00
2192;BME280;1102;49.718;11.902;2023-04-07T00:54:12;96296.06;;;-1.49;100.00
2192;BME280;1102;49.718;11.902;2023-04-07T00:56:39;96334.13;;;-1.17;100.00
2192;BME280;1102;49.718;11.902;2023-04-07T00:59:08;96316.69;;;-1.22;100.00
2192;BME280;1102;49.718;11.902;2023-04-07T01:01:44;96324.97;;;-1.25;100.00
2192;BME280;1102;49.718;11.902;2023-04-07T01:04:26;96292.03;;;-1.71;100.00
2192;BME280;1102;49.718;11.902;2023-04-07T01:06:58;96287.44;;;-1.96;100.00
2192;BME280;1102;49.718;11.902;2023-04-07T01:09:54;96311.28;;;-1.94;100.00
2192;BME280;1102;49.718;11.902;2023-04-07T01:15:24;96286.97;;;-1.51;100.00
2192;BME280;1102;49.718;11.902;2023-04-07T01:18:04;96306.28;;;-1.32;100.00
2192;BME280;1102;49.718;11.902;2023-04-07T01:20:33;96314.53;;;-1.35;100.00
2192;BME280;1102;49.718;11.902;2023-04-07T01:23:04;96299.97;;;-1.46;100.00
2192;BME280;1102;49.718;11.902;2023-04-07T01:31:15;96307.53;;;-1.39;100.00
2192;BME280;1102;49.718;11.902;2023-04-07T01:33:46;96311.94;;;-1.40;100.00
2192;BME280;1102;49.718;11.902;2023-04-07T01:36:15;96309.34;;;-1.40;100.00
2192;BME280;1102;49.718;11.902;2023-04-07T01:38:43;96295.84;;;-1.42;100.00
2192;BME280;1102;49.718;11.902;2023-04-07T01:41:14;96291.09;;;-1.55;100.00
2192;BME280;1102;49.718;11.902;2023-04-07T01:43:41;96311.94;;;-1.40;100.00
2192;BME280;1102;49.718;11.902;2023-04-07T01:46:10;96268.97;;;-1.73;100.00
2192;BME280;1102;49.718;11.902;2023-04-07T01:48:38;96300.69;;;-1.56;100.00
2192;BME280;1102;49.718;11.902;2023-04-07T01:51:06;96307.19;;;-1.48;100.00
2192;BME280;1102;49.718;11.902;2023-04-07T01:53:33;96298.69;;;-1.43;100.00
2192;BME280;1102;49.718;11.902;2023-04-07T01:56:03;96284.09;;;-1.55;100.00
2192;BME280;1102;49.718;11.902;2023-04-07T01:58:33;96270.53;;;-1.72;100.00
2192;BME280;1102;49.718;11.902;2023-04-07T02:01:01;96275.97;;;-1.68;100.00
2192;BME280;1102;49.718;11.902;2023-04-07T02:06:06;96287.50;;;-1.49;100.00
2192;BME280;1102;49.718;11.902;2023-04-07T02:08:41;96271.31;;;-1.71;100.00
2192;BME280;1102;49.718;11.902;2023-04-07T02:11:12;96290.53;;;-1.62;100.00
2192;BME280;1102;49.718;11.902;2023-04-07T02:13:41;96273.38;;;-2.05;100.00
2192;BME280;1102;49.718;11.902;2023-04-07T02:16:11;96256.78;;;-2.10;100.00
2192;BME280;1102;49.718;11.902;2023-04-07T02:18:38;96284.34;;;-1.93;100.00
2192;BME280;1102;49.718;11.902;2023-04-07T02:21:06;96284.25;;;-1.71;100.00
2192;BME280;1102;49.718;11.902;2023-04-07T02:23:35;96280.59;;;-1.75;100.00
2192;BME280;1102;49.718;11.902;2023-04-07T02:26:01;96264.97;;;-1.86;100.00
2192;BME280;1102;49.718;11.902;2023-04-07T02:28:28;96214.06;;;-2.39;100.00
2192;BME280;1102;49.718;11.902;2023-04-07T02:30:55;96268.22;;;-2.00;100.00
2192;BME280;1102;49.718;11.902;2023-04-07T02:33:21;96266.13;;;-2.35;100.00
2192;BME280;1102;49.718;11.902;2023-04-07T02:35:49;96284.91;;;-2.18;100.00
2192;BME280;1102;49.718;11.902;2023-04-07T02:38:16;96253.88;;;-2.45;100.00
2192;BME280;1102;49.718;11.902;2023-04-07T02:40:42;96263.88;;;-2.27;100.00
2192;BME280;1102;49.718;11.902;2023-04-07T02:43:09;96259.09;;;-2.13;100.00
2192;BME280;1102;49.718;11.902;2023-04-07T02:45:36;96242.88;;;-2.30;100.00
2192;BME280;1102;49.718;11.902;2023-04-07T02:48:02;96216.44;;;-2.32;100.00
2192;BME280;1102;49.718;11.902;2023-04-07T02:50:29;96246.19;;;-2.03;100.00
2192;BME280;1102;49.718;11.902;2023-04-07T02:52:56;96232.06;;;-2.22;100.00
2192;BME280;1102;49.718;11.902;2023-04-07T02:55:22;96267.28;;;-1.89;100.00
2192;BME280;1102;49.718;11.902;2023-04-07T02:57:49;96276.06;;;-1.90;100.00
2192;BME280;1102;49.718;11.902;2023-04-07T03:00:34;96252.13;;;-2.08;100.00
2192;BME280;1102;49.718;11.902;2023-04-07T03:03:08;96264.25;;;-2.13;100.00
2192;BME280;1102;49.718;11.902;2023-04-07T03:05:39;96252.97;;;-2.29;100.00
2192;BME280;1102;49.718;11.902;2023-04-07T03:08:07;96265.97;;;-2.24;100.00
2192;BME280;1102;49.718;11.902;2023-04-07T03:10:35;96265.00;;;-2.45;100.00
2192;BME280;1102;49.718;11.902;2023-04-07T03:13:02;96179.34;;;-3.02;100.00
2192;BME280;1102;49.718;11.902;2023-04-07T03:15:30;96255.72;;;-2.41;100.00
2192;BME280;1102;49.718;11.902;2023-04-07T03:17:56;96225.91;;;-2.75;100.00
2192;BME280;1102;49.718;11.902;2023-04-07T03:20:23;96241.81;;;-2.61;100.00
2192;BME280;1102;49.718;11.902;2023-04-07T03:22:50;96243.03;;;-2.69;100.00
2192;BME280;1102;49.718;11.902;2023-04-07T03:25:24;96264.72;;;-2.48;100.00
2192;BME280;1102;49.718;11.902;2023-04-07T03:27:52;96257.34;;;-2.61;100.00
2192;BME280;1102;49.718;11.902;2023-04-07T03:30:19;96252.22;;;-2.56;100.00
2192;BME280;1102;49.718;11.902;2023-04-07T03:32:47;96244.28;;;-2.72;100.00
2192;BME280;1102;49.718;11.902;2023-04-07T03:35:14;96229.59;;;-2.93;100.00
2192;BME280;1102;49.718;11.902;2023-04-07T03:37:42;96184.22;;;-3.06;100.00
2192;BME280;1102;49.718;11.902;2023-04-07T03:40:14;96226.41;;;-2.78;100.00
2192;BME280;1102;49.718;11.902;2023-04-07T03:42:40;96242.50;;;-2.71;100.00
2192;BME280;1102;49.718;11.902;2023-04-07T03:45:10;96221.22;;;-2.51;100.00
2192;BME280;1102;49.718;11.902;2023-04-07T03:47:40;96250.47;;;-2.51;100.00
2192;BME280;1102;49.718;11.902;2023-04-07T03:50:08;96221.53;;;-2.70;100.00
2192;BME280;1102;49.718;11.902;2023-04-07T03:52:45;96210.53;;;-3.09;100.00
2192;BME280;1102;49.718;11.902;2023-04-07T03:55:21;96220.97;;;-3.04;100.00
2192;BME280;1102;49.718;11.902;2023-04-07T03:57:52;96246.25;;;-2.84;100.00
2192;BME280;1102;49.718;11.902;2023-04-07T04:00:19;96209.88;;;-2.99;100.00
2192;BME280;1102;49.718;11.902;2023-04-07T04:03:01;96246.25;;;-2.57;100.00
2192;BME280;1102;49.718;11.902;2023-04-07T04:05:28;96208.19;;;-2.88;100.00
2192;BME280;1102;49.718;11.902;2023-04-07T04:07:55;96216.06;;;-2.78;100.00
2192;BME280;1102;49.718;11.902;2023-04-07T04:10:22;96230.28;;;-2.76;100.00
2192;BME280;1102;49.718;11.902;2023-04-07T04:12:51;96212.09;;;-2.86;100.00
2192;BME280;1102;49.718;11.902;2023-04-07T04:15:18;96248.59;;;-2.82;100.00
2192;BME280;1102;49.718;11.902;2023-04-07T04:17:45;96252.19;;;-2.83;100.00
2192;BME280;1102;49.718;11.902;2023-04-07T04:20:13;96214.50;;;-3.01;100.00
2192;BME280;1102;49.718;11.902;2023-04-07T04:22:42;96255.94;;;-2.96;100.00
2192;BME280;1102;49.718;11.902;2023-04-07T04:25:09;96247.75;;;-2.88;100.00
2192;BME280;1102;49.718;11.902;2023-04-07T04:27:38;96205.13;;;-3.07;100.00
2192;BME280;1102;49.718;11.902;2023-04-07T04:30:13;96206.84;;;-3.18;100.00
2192;BME280;1102;49.718;11.902;2023-04-07T04:32:50;96113.72;;;-3.94;100.00
2192;BME280;1102;49.718;11.902;2023-04-07T04:35:21;96201.44;;;-3.38;100.00
2192;BME280;1102;49.718;11.902;2023-04-07T04:38:01;96222.72;;;-3.31;100.00
2192;BME280;1102;49.718;11.902;2023-04-07T04:40:29;96210.69;;;-3.42;100.00
2192;BME280;1102;49.718;11.902;2023-04-07T04:42:55;96217.16;;;-3.40;100.00
2192;BME280;1102;49.718;11.902;2023-04-07T04:45:23;96246.03;;;-3.26;100.00
2192;BME280;1102;49.718;11.902;2023-04-07T04:47:50;96219.88;;;-3.51;100.00
2192;BME280;1102;49.718;11.902;2023-04-07T04:50:17;96167.63;;;-3.97;100.00
2192;BME280;1102;49.718;11.902;2023-04-07T04:52:45;96198.53;;;-3.64;100.00
2192;BME280;1102;49.718;11.902;2023-04-07T04:55:18;96216.59;;;-3.64;100.00
2192;BME280;1102;49.718;11.902;2023-04-07T04:57:45;96207.38;;;-3.60;100.00
2192;BME280;1102;49.718;11.902;2023-04-07T05:00:17;96214.56;;;-3.62;100.00
2192;BME280;1102;49.718;11.902;2023-04-07T05:02:47;96237.59;;;-3.38;100.00
2192;BME280;1102;49.718;11.902;2023-04-07T05:05:14;96203.94;;;-3.65;100.00
2192;BME280;1102;49.718;11.902;2023-04-07T05:07:42;96198.88;;;-3.77;100.00
2192;BME280;1102;49.718;11.902;2023-04-07T05:10:11;96193.25;;;-3.91;100.00
2192;BME280;1102;49.718;11.902;2023-04-07T05:12:44;96241.63;;;-3.86;100.00
2192;BME280;1102;49.718;11.902;2023-04-07T05:15:11;96204.16;;;-4.05;100.00
2192;BME280;1102;49.718;11.902;2023-04-07T05:17:38;96201.75;;;-4.12;100.00
2192;BME280;1102;49.718;11.902;2023-04-07T05:20:09;96231.56;;;-3.66;100.00
2192;BME280;1102;49.718;11.902;2023-04-07T05:22:39;96201.34;;;-3.65;100.00
2192;BME280;1102;49.718;11.902;2023-04-07T05:25:10;96225.53;;;-3.33;100.00
2192;BME280;1102;49.718;11.902;2023-04-07T05:27:38;96210.88;;;-3.27;100.00
2192;BME280;1102;49.718;11.902;2023-04-07T05:30:11;96219.84;;;-3.08;100.00
2192;BME280;1102;49.718;11.902;2023-04-07T05:32:38;96212.75;;;-2.95;100.00
2192;BME280;1102;49.718;11.902;2023-04-07T05:35:14;96200.72;;;-2.85;100.00
2192;BME280;1102;49.718;11.902;2023-04-07T05:37:48;96209.78;;;-2.82;100.00
2192;BME280;1102;49.718;11.902;2023-04-07T05:40:15;96201.47;;;-2.57;100.00
2192;BME280;1102;49.718;11.902;2023-04-07T05:42:42;96233.41;;;-2.15;100.00
2192;BME280;1102;49.718;11.902;2023-04-07T05:45:09;96231.44;;;-2.34;100.00
2192;BME280;1102;49.718;11.902;2023-04-07T05:47:40;96249.72;;;-1.82;100.00
2192;BME280;1102;49.718;11.902;2023-04-07T05:50:09;96200.09;;;-2.01;100.00
2192;BME280;1102;49.718;11.902;2023-04-07T05:52:39;96211.44;;;-1.70;100.00
2192;BME280;1102;49.718;11.902;2023-04-07T05:55:17;96220.28;;;-1.66;100.00
2192;BME280;1102;49.718;11.902;2023-04-07T05:57:44;96209.19;;;-1.56;100.00
2192;BME280;1102;49.718;11.902;2023-04-07T06:00:12;96224.03;;;-1.46;100.00
2192;BME280;1102;49.718;11.902;2023-04-07T06:02:39;96212.31;;;-1.49;100.00
2192;BME280;1102;49.718;11.902;2023-04-07T06:05:12;96207.75;;;-1.27;100.00
2192;BME280;1102;49.718;11.902;2023-04-07T06:07:39;96225.13;;;-1.27;100.00
2192;BME280;1102;49.718;11.902;2023-04-07T06:10:07;96204.34;;;-1.37;100.00
2192;BME280;1102;49.718;11.902;2023-04-07T06:12:34;96214.84;;;-1.02;100.00
2192;BME280;1102;49.718;11.902;2023-04-07T06:15:00;96232.06;;;-0.70;100.00
2192;BME280;1102;49.718;11.902;2023-04-07T06:17:27;96213.03;;;-0.96;100.00
2192;BME280;1102;49.718;11.902;2023-04-07T06:19:54;96231.78;;;-0.69;100.00
2192;BME280;1102;49.718;11.902;2023-04-07T06:22:21;96250.81;;;-0.53;100.00
2192;BME280;1102;49.718;11.902;2023-04-07T06:24:47;96217.53;;;-0.56;100.00
2192;BME280;1102;49.718;11.902;2023-04-07T06:27:14;96220.38;;;-0.73;100.00
2192;BME280;1102;49.718;11.902;2023-04-07T06:29:41;96202.72;;;-0.76;100.00
2192;BME280;1102;49.718;11.902;2023-04-07T06:32:08;96209.00;;;-0.46;100.00
2192;BME280;1102;49.718;11.902;2023-04-07T06:34:35;96238.34;;;-0.05;100.00
2192;BME280;1102;49.718;11.902;2023-04-07T06:37:01;96258.34;;;0.45;100.00
2192;BME280;1102;49.718;11.902;2023-04-07T06:39:29;96234.84;;;0.76;100.00
2192;BME280;1102;49.718;11.902;2023-04-07T06:41:56;96264.38;;;1.10;100.00
2192;BME280;1102;49.718;11.902;2023-04-07T06:44:23;96222.53;;;0.97;100.00
2192;BME280;1102;49.718;11.902;2023-04-07T06:46:49;96240.00;;;1.40;100.00
2192;BME280;1102;49.718;11.902;2023-04-07T06:49:18;96257.38;;;1.94;100.00
2192;BME280;1102;49.718;11.902;2023-04-07T06:51:45;96253.75;;;1.90;100.00
2192;BME280;1102;49.718;11.902;2023-04-07T06:54:12;96217.97;;;1.67;100.00
2192;BME280;1102;49.718;11.902;2023-04-07T06:56:41;96247.28;;;1.88;100.00
2192;BME280;1102;49.718;11.902;2023-04-07T06:59:08;96240.34;;;2.07;100.00
2192;BME280;1102;49.718;11.902;2023-04-07T07:01:35;96211.69;;;1.68;100.00
2192;BME280;1102;49.718;11.902;2023-04-07T07:04:03;96230.53;;;1.94;100.00
2192;BME280;1102;49.718;11.902;2023-04-07T07:06:32;96259.56;;;2.16;100.00
2192;BME280;1102;49.718;11.902;2023-04-07T07:08:59;96229.75;;;2.22;100.00
2192;BME280;1102;49.718;11.902;2023-04-07T07:11:28;96235.25;;;2.74;100.00
2192;BME280;1102;49.718;11.902;2023-04-07T07:13:54;96236.75;;;3.04;100.00
2192;BME280;1102;49.718;11.902;2023-04-07T07:16:21;96262.91;;;3.41;100.00
2192;BME280;1102;49.718;11.902;2023-04-07T07:18:50;96266.16;;;3.71;100.00
2192;BME280;1102;49.718;11.902;2023-04-07T07:21:18;96265.75;;;4.01;100.00
2192;BME280;1102;49.718;11.902;2023-04-07T07:23:44;96241.72;;;3.80;100.00
2192;BME280;1102;49.718;11.902;2023-04-07T07:26:11;96255.91;;;4.26;100.00
2192;BME280;1102;49.718;11.902;2023-04-07T07:28:38;96222.72;;;3.75;100.00
2192;BME280;1102;49.718;11.902;2023-04-07T07:31:11;96254.50;;;4.33;100.00
2192;BME280;1102;49.718;11.902;2023-04-07T07:33:39;96274.28;;;4.53;100.00
2192;BME280;1102;49.718;11.902;2023-04-07T07:36:07;96210.78;;;4.48;100.00
2192;BME280;1102;49.718;11.902;2023-04-07T07:38:34;96266.28;;;5.04;100.00
2192;BME280;1102;49.718;11.902;2023-04-07T07:41:03;96273.47;;;5.13;100.00
2192;BME280;1102;49.718;11.902;2023-04-07T07:43:29;96262.97;;;5.40;100.00
2192;BME280;1102;49.718;11.902;2023-04-07T07:45:56;96249.56;;;5.42;100.00
2192;BME280;1102;49.718;11.902;2023-04-07T07:48:23;96270.25;;;5.29;100.00
2192;BME280;1102;49.718;11.902;2023-04-07T07:50:50;96264.81;;;5.40;100.00
2192;BME280;1102;49.718;11.902;2023-04-07T07:53:17;96233.25;;;5.31;100.00
2192;BME280;1102;49.718;11.902;2023-04-07T07:55:45;96266.50;;;5.22;100.00
2192;BME280;1102;49.718;11.902;2023-04-07T07:58:12;96201.56;;;5.05;100.00
2192;BME280;1102;49.718;11.902;2023-04-07T08:00:39;96244.50;;;5.45;100.00
2192;BME280;1102;49.718;11.902;2023-04-07T08:03:06;96243.63;;;5.50;97.43
2192;BME280;1102;49.718;11.902;2023-04-07T08:05:33;96271.53;;;5.68;100.00
2192;BME280;1102;49.718;11.902;2023-04-07T08:08:00;96256.38;;;5.79;98.97
2192;BME280;1102;49.718;11.902;2023-04-07T08:10:27;96229.50;;;5.59;96.31
2192;BME280;1102;49.718;11.902;2023-04-07T08:12:53;96256.03;;;5.94;97.16
2192;BME280;1102;49.718;11.902;2023-04-07T08:15:20;96238.59;;;6.43;96.76
2192;BME280;1102;49.718;11.902;2023-04-07T08:17:47;96251.97;;;6.64;96.03
2192;BME280;1102;49.718;11.902;2023-04-07T08:20:13;96263.94;;;6.47;92.08
2192;BME280;1102;49.718;11.902;2023-04-07T08:22:41;96281.41;;;6.43;90.60
2192;BME280;1102;49.718;11.902;2023-04-07T08:25:08;96256.34;;;6.15;89.30
2192;BME280;1102;49.718;11.902;2023-04-07T08:27:36;96252.63;;;6.38;89.42
2192;BME280;1102;49.718;11.902;2023-04-07T08:30:04;96259.97;;;6.28;87.79
2192;BME280;1102;49.718;11.902;2023-04-07T08:35:02;96284.53;;;6.85;91.47
2192;BME280;1102;49.718;11.902;2023-04-07T08:37:30;96261.06;;;6.58;86.56
2192;BME280;1102;49.718;11.902;2023-04-07T08:39:56;96233.47;;;6.38;91.01
2192;BME280;1102;49.718;11.902;2023-04-07T08:42:28;96266.94;;;6.55;90.91
2192;BME280;1102;49.718;11.902;2023-04-07T08:44:57;96259.25;;;6.36;88.22
2192;BME280;1102;49.718;11.902;2023-04-07T08:47:27;96250.00;;;6.38;87.14
2192;BME280;1102;49.718;11.902;2023-04-07T08:49:59;96267.09;;;6.58;88.30
2192;BME280;1102;49.718;11.902;2023-04-07T08:52:54;96270.38;;;7.03;87.16
2192;BME280;1102;49.718;11.902;2023-04-07T08:55:19;96274.56;;;7.79;89.01
2192;BME280;1102;49.718;11.902;2023-04-07T08:57:46;96254.53;;;7.34;82.45
2192;BME280;1102;49.718;11.902;2023-04-07T09:00:14;96277.19;;;7.61;80.78
2192;BME280;1102;49.718;11.902;2023-04-07T09:02:42;96282.75;;;8.12;81.15
2192;BME280;1102;49.718;11.902;2023-04-07T09:05:14;96253.22;;;7.89;79.30
2192;BME280;1102;49.718;11.902;2023-04-07T09:07:41;96283.09;;;8.02;78.78
2192;BME280;1102;49.718;11.902;2023-04-07T09:10:10;96247.13;;;7.54;79.79
2192;BME280;1102;49.718;11.902;2023-04-07T09:12:37;96257.78;;;7.23;81.00
2192;BME280;1102;49.718;11.902;2023-04-07T09:15:05;96278.84;;;7.57;82.33
2192;BME280;1102;49.718;11.902;2023-04-07T09:17:32;96275.00;;;7.55;80.60
2192;BME280;1102;49.718;11.902;2023-04-07T09:20:00;96246.34;;;7.45;80.55
2192;BME280;1102;49.718;11.902;2023-04-07T09:22:37;96267.13;;;8.15;83.20
2192;BME280;1102;49.718;11.902;2023-04-07T09:25:11;96276.53;;;8.34;81.21
2192;BME280;1102;49.718;11.902;2023-04-07T09:27:38;96234.72;;;8.23;79.20
2192;BME280;1102;49.718;11.902;2023-04-07T09:30:13;96270.94;;;8.52;78.86
2192;BME280;1102;49.718;11.902;2023-04-07T09:32:41;96239.53;;;8.30;78.34
2192;BME280;1102;49.718;11.902;2023-04-07T09:35:08;96241.56;;;8.16;78.98
2192;BME280;1102;49.718;11.902;2023-04-07T09:37:35;96247.88;;;8.23;77.70
2192;BME280;1102;49.718;11.902;2023-04-07T09:40:03;96261.84;;;8.24;77.56
2192;BME280;1102;49.718;11.902;2023-04-07T09:42:31;96265.22;;;8.50;77.04
2192;BME280;1102;49.718;11.902;2023-04-07T09:45:01;96253.91;;;8.50;78.07
2192;BME280;1102;49.718;11.902;2023-04-07T09:47:30;96240.03;;;8.15;77.23
2192;BME280;1102;49.718;11.902;2023-04-07T09:49:57;96259.81;;;8.29;76.73
2192;BME280;1102;49.718;11.902;2023-04-07T09:52:48;96265.09;;;8.38;77.16
2192;BME280;1102;49.718;11.902;2023-04-07T09:55:15;96259.94;;;8.59;75.64
2192;BME280;1102;49.718;11.902;2023-04-07T09:57:43;96243.25;;;8.20;75.50
2192;BME280;1102;49.718;11.902;2023-04-07T10:00:11;96239.91;;;8.67;75.65
2192;BME280;1102;49.718;11.902;2023-04-07T10:02:42;96251.50;;;8.74;74.47
2192;BME280;1102;49.718;11.902;2023-04-07T10:05:09;96232.00;;;8.67;73.89
2192;BME280;1102;49.718;11.902;2023-04-07T10:07:36;96251.81;;;8.81;73.85
2192;BME280;1102;49.718;11.902;2023-04-07T10:10:03;96232.41;;;8.86;75.13
2192;BME280;1102;49.718;11.902;2023-04-07T10:12:33;96264.25;;;8.72;72.61
2192;BME280;1102;49.718;11.902;2023-04-07T10:14:59;96231.53;;;8.65;73.37
2192;BME280;1102;49.718;11.902;2023-04-07T10:17:27;96254.53;;;8.94;72.26
2192;BME280;1102;49.718;11.902;2023-04-07T10:19:57;96259.03;;;8.93;71.62
2192;BME280;1102;49.718;11.902;2023-04-07T10:22:26;96231.28;;;8.96;72.61
2192;BME280;1102;49.718;11.902;2023-04-07T10:24:58;96259.41;;;9.42;71.08
2192;BME280;1102;49.718;11.902;2023-04-07T10:27:35;96237.22;;;9.43;70.60
2192;BME280;1102;49.718;11.902;2023-04-07T10:30:04;96213.59;;;9.46;70.64
2192;BME280;1102;49.718;11.902;2023-04-07T10:32:47;96249.66;;;9.84;70.01
2192;BME280;1102;49.718;11.902;2023-04-07T10:35:15;96247.59;;;9.69;68.03
2192;BME280;1102;49.718;11.902;2023-04-07T10:40:33;96215.97;;;10.02;64.95
2192;BME280;1102;49.718;11.902;2023-04-07T10:43:00;96246.63;;;9.94;64.88
2192;BME280;1102;49.718;11.902;2023-04-07T10:48:15;96219.63;;;9.47;61.50
2192;BME280;1102;49.718;11.902;2023-04-07T10:53:33;96206.72;;;9.54;60.07
2192;BME280;1102;49.718;11.902;2023-04-07T10:56:00;96215.91;;;9.69;59.14
2192;BME280;1102;49.718;11.902;2023-04-07T10:58:28;96219.53;;;9.64;60.42
2192;BME280;1102;49.718;11.902;2023-04-07T11:03:23;96210.81;;;9.85;59.38
2192;BME280;1102;49.718;11.902;2023-04-07T11:05:51;96216.97;;;10.30;59.30
2192;BME280;1102;49.718;11.902;2023-04-07T11:08:37;96231.63;;;10.52;59.72
2192;BME280;1102;49.718;11.902;2023-04-07T11:11:05;96232.38;;;10.98;58.93
2192;BME280;1102;49.718;11.902;2023-04-07T11:16:12;96220.56;;;10.95;57.75
2192;BME280;1102;49.718;11.902;2023-04-07T11:18:40;96210.69;;;11.45;58.36
2192;BME280;1102;49.718;11.902;2023-04-07T11:21:08;96196.97;;;11.03;56.57
2192;BME280;1102;49.718;11.902;2023-04-07T11:23:42;96230.25;;;11.04;55.73
2192;BME280;1102;49.718;11.902;2023-04-07T11:26:11;96191.47;;;10.59;56.14
2192;BME280;1102;49.718;11.902;2023-04-07T11:28:49;96220.91;;;10.82;56.39
2192;BME280;1102;49.718;11.902;2023-04-07T11:31:24;96184.50;;;11.28;55.42
2192;BME280;1102;49.718;11.902;2023-04-07T11:33:56;96191.09;;;11.34;54.51
2192;BME280;1102;49.718;11.902;2023-04-07T11:36:37;96203.78;;;11.40;54.53
2192;BME280;1102;49.718;11.902;2023-04-07T11:39:04;96229.59;;;10.82;55.02
2192;BME280;1102;49.718;11.902;2023-04-07T11:41:32;96204.78;;;10.75;54.70
2192;BME280;1102;49.718;11.902;2023-04-07T11:44:03;96224.63;;;11.42;54.83
2192;BME280;1102;49.718;11.902;2023-04-07T11:46:30;96222.56;;;11.75;55.08
2192;BME280;1102;49.718;11.902;2023-04-07T11:49:13;96224.88;;;11.24;55.24
2192;BME280;1102;49.718;11.902;2023-04-07T11:51:42;96232.69;;;11.86;53.63
2192;BME280;1102;49.718;11.902;2023-04-07T11:54:10;96216.03;;;12.72;53.32
2192;BME280;1102;49.718;11.902;2023-04-07T11:56:43;96223.06;;;12.96;53.47
2192;BME280;1102;49.718;11.902;2023-04-07T11:59:19;96225.72;;;13.47;52.38
2192;BME280;1102;49.718;11.902;2023-04-07T12:01:47;96190.63;;;12.87;52.17
2192;BME280;1102;49.718;11.902;2023-04-07T12:04:14;96153.88;;;12.10;52.83
2192;BME280;1102;49.718;11.902;2023-04-07T12:06:45;96198.25;;;12.13;53.60
2192;BME280;1102;49.718;11.902;2023-04-07T12:11:52;96210.81;;;12.76;54.05
2192;BME280;1102;49.718;11.902;2023-04-07T12:14:19;96177.84;;;12.30;52.47
2192;BME280;1102;49.718;11.902;2023-04-07T12:16:46;96214.91;;;12.58;53.60
2192;BME280;1102;49.718;11.902;2023-04-07T12:19:13;96180.34;;;12.38;53.77
2192;BME280;1102;49.718;11.902;2023-04-07T12:21:39;96159.53;;;12.25;54.29
2192;BME280;1102;49.718;11.902;2023-04-07T12:24:06;96224.41;;;12.75;51.79
2192;BME280;1102;49.718;11.902;2023-04-07T12:26:33;96196.72;;;11.84;52.69
2192;BME280;1102;49.718;11.902;2023-04-07T12:28:59;96154.28;;;13.23;52.16
2192;BME280;1102;49.718;11.902;2023-04-07T12:31:31;96195.28;;;14.18;51.41
2192;BME280;1102;49.718;11.902;2023-04-07T12:33:58;96197.22;;;14.22;50.80
2192;BME280;1102;49.718;11.902;2023-04-07T12:36:25;96223.47;;;13.65;50.43
2192;BME280;1102;49.718;11.902;2023-04-07T12:38:55;96181.72;;;13.66;49.68
2192;BME280;1102;49.718;11.902;2023-04-07T12:41:23;96211.00;;;13.69;50.07
2192;BME280;1102;49.718;11.902;2023-04-07T12:43:50;96170.53;;;13.76;49.21
2192;BME280;1102;49.718;11.902;2023-04-07T12:46:18;96209.75;;;14.02;48.48
2192;BME280;1102;49.718;11.902;2023-04-07T12:48:45;96172.03;;;14.15;48.47
2192;BME280;1102;49.718;11.902;2023-04-07T12:51:13;96186.41;;;14.34;47.63
2192;BME280;1102;49.718;11.902;2023-04-07T12:53:40;96191.03;;;15.32;47.60
2192;BME280;1102;49.718;11.902;2023-04-07T12:56:07;96189.38;;;15.77;47.01
2192;BME280;1102;49.718;11.902;2023-04-07T12:58:34;96186.34;;;15.52;46.25
2192;BME280;1102;49.718;11.902;2023-04-07T13:01:00;96202.09;;;15.90;46.85
2192;BME280;1102;49.718;11.902;2023-04-07T13:03:27;96177.88;;;15.73;45.39
2192;BME280;1102;49.718;11.902;2023-04-07T13:05:54;96193.16;;;16.09;45.85
2192;BME280;1102;49.718;11.902;2023-04-07T13:08:21;96153.84;;;15.69;45.38
2192;BME280;1102;49.718;11.902;2023-04-07T13:10:48;96186.44;;;14.79;46.36
2192;BME280;1102;49.718;11.902;2023-04-07T13:13:14;96178.94;;;14.62;46.15
2192;BME280;1102;49.718;11.902;2023-04-07T13:15:41;96193.25;;;14.54;45.46
2192;BME280;1102;49.718;11.902;2023-04-07T13:18:08;96159.94;;;13.99;46.96
2192;BME280;1102;49.718;11.902;2023-04-07T13:20:35;96185.03;;;14.63;44.61
2192;BME280;1102;49.718;11.902;2023-04-07T13:23:01;96158.22;;;14.98;45.87
2192;BME280;1102;49.718;11.902;2023-04-07T13:25:35;96167.53;;;15.11;45.56
2192;BME280;1102;49.718;11.902;2023-04-07T13:28:05;96179.88;;;14.96;46.78
2192;BME280;1102;49.718;11.902;2023-04-07T13:30:32;96168.53;;;14.76;46.20
2192;BME280;1102;49.718;11.902;2023-04-07T13:33:00;96148.97;;;14.65;45.46
2192;BME280;1102;49.718;11.902;2023-04-07T13:35:29;96149.94;;;14.11;46.00
2192;BME280;1102;49.718;11.902;2023-04-07T13:38:02;96172.41;;;15.92;44.69
2192;BME280;1102;49.718;11.902;2023-04-07T13:40:29;96165.69;;;15.45;46.12
2192;BME280;1102;49.718;11.902;2023-04-07T13:42:56;96163.34;;;15.10;44.40
2192;BME280;1102;49.718;11.902;2023-04-07T13:45:23;96160.16;;;15.01;44.97
2192;BME280;1102;49.718;11.902;2023-04-07T13:47:50;96145.06;;;15.38;46.23